Terminal Aerodrome Forecast
Issued by NWS

Current Version | Previous Version | Text Only | Print | Product List | Glossary On
Versions: 1 2 3 4 5 6 7 8 9 10 11 12 13 14 15 16 17 18 19
000 FTUS41 KILN 271700 TAFLCK TAF KLCK 271720Z 2718/2818 35012KT P6SM BKN035 FM280100 36004KT P6SM FEW040 FM281300 05010KT P6SM FEW045=

USA.gov is the U.S. government's official web portal to all federal, state and local government web resources and services.